createdAt,value
2022-08-25T00:00:20.288Z,4.03
2022-08-25T00:02:55.737Z,4.03
2022-08-25T00:05:32.127Z,3.95
2022-08-25T00:08:01.149Z,4.45
2022-08-25T00:10:29.538Z,4.05
2022-08-25T00:12:57.512Z,3.85
2022-08-25T00:15:25.966Z,4.30
2022-08-25T00:17:55.734Z,4.10
2022-08-25T00:20:23.724Z,4.63
2022-08-25T00:22:51.880Z,4.40
2022-08-25T00:25:20.493Z,4.00
2022-08-25T00:27:48.870Z,4.07
2022-08-25T00:30:17.614Z,4.32
2022-08-25T00:32:55.149Z,4.43
2022-08-25T00:35:27.898Z,4.03
2022-08-25T00:37:56.154Z,4.28
2022-08-25T00:40:25.736Z,3.88
2022-08-25T00:42:54.575Z,4.13
2022-08-25T00:45:23.763Z,4.13
2022-08-25T00:47:51.769Z,3.97
2022-08-25T00:50:20.558Z,4.38
2022-08-25T00:52:53.944Z,3.85
2022-08-25T00:55:25.725Z,4.00
2022-08-25T00:57:57.975Z,3.70
2022-08-25T01:00:31.190Z,4.57
2022-08-25T01:02:59.706Z,3.92
2022-08-25T01:05:29.156Z,4.10
2022-08-25T01:08:01.211Z,4.47
2022-08-25T01:10:32.230Z,3.83
2022-08-25T01:13:06.269Z,4.25
2022-08-25T01:15:38.719Z,4.05
2022-08-25T01:18:06.994Z,3.42
2022-08-25T01:20:35.549Z,4.55
2022-08-25T01:23:05.247Z,3.78
2022-08-25T01:25:52.537Z,4.03
2022-08-25T01:28:21.291Z,4.20
2022-08-25T01:30:50.482Z,4.68
2022-08-25T01:33:18.493Z,4.05
2022-08-25T01:35:47.535Z,4.18
2022-08-25T01:38:17.187Z,4.20
2022-08-25T01:40:45.549Z,4.43
2022-08-25T01:43:22.141Z,4.18
2022-08-25T01:45:50.688Z,3.90
2022-08-25T01:48:20.456Z,4.20
2022-08-25T01:50:48.451Z,4.35
2022-08-25T01:53:23.934Z,3.75
2022-08-25T01:56:01.679Z,4.60
2022-08-25T01:58:34.102Z,4.18
2022-08-25T02:01:06.897Z,4.10
2022-08-25T02:03:38.089Z,4.35
2022-08-25T02:06:10.663Z,4.07
2022-08-25T02:08:40.273Z,4.35
2022-08-25T02:11:12.893Z,3.83
2022-08-25T02:13:41.705Z,4.10
2022-08-25T02:16:11.591Z,4.45
2022-08-25T02:18:39.833Z,4.10
2022-08-25T02:21:07.802Z,4.30
2022-08-25T02:23:36.045Z,4.10
2022-08-25T02:26:06.284Z,3.92
2022-08-25T02:28:34.391Z,4.05
2022-08-25T02:31:02.609Z,4.30
2022-08-25T02:33:30.675Z,3.75
2022-08-25T02:35:59.650Z,4.28
2022-08-25T02:38:28.401Z,4.30
2022-08-25T02:40:56.437Z,4.65
2022-08-25T02:43:26.455Z,4.32
2022-08-25T02:45:55.406Z,3.88
2022-08-25T02:48:24.392Z,4.28
2022-08-25T02:50:53.466Z,4.60
2022-08-25T02:53:21.909Z,4.63
2022-08-25T02:55:49.865Z,4.40
2022-08-25T02:58:17.873Z,4.38
2022-08-25T03:00:47.253Z,4.47
2022-08-25T03:03:16.344Z,4.40
2022-08-25T03:05:44.321Z,4.20
2022-08-25T03:08:12.382Z,4.25
2022-08-25T03:10:40.711Z,3.97
2022-08-25T03:13:08.723Z,4.40
2022-08-25T03:15:38.342Z,4.90
2022-08-25T03:18:08.682Z,4.28
2022-08-25T03:20:36.770Z,4.22
2022-08-25T03:23:06.052Z,4.20
2022-08-25T03:25:48.463Z,4.60
2022-08-25T03:28:16.489Z,4.47
2022-08-25T03:30:44.472Z,4.25
2022-08-25T03:33:15.052Z,5.00
2022-08-25T03:35:43.087Z,4.10
2022-08-25T03:38:11.464Z,4.07
2022-08-25T03:40:39.524Z,4.22
2022-08-25T03:43:07.481Z,4.65
2022-08-25T03:45:36.064Z,4.03
2022-08-25T03:48:04.453Z,5.20
2022-08-25T03:50:34.138Z,4.70
2022-08-25T03:53:02.282Z,5.35
2022-08-25T03:55:30.687Z,4.70
2022-08-25T03:58:00.613Z,4.82
2022-08-25T04:00:28.599Z,4.38
2022-08-25T04:02:56.540Z,4.68
2022-08-25T04:05:24.820Z,4.80
2022-08-25T04:07:56.461Z,4.53
2022-08-25T04:10:24.527Z,4.70
2022-08-25T04:12:52.506Z,4.60
2022-08-25T04:15:20.660Z,4.75
2022-08-25T04:17:48.628Z,5.10
2022-08-25T04:20:20.353Z,3.90
2022-08-25T04:22:48.422Z,4.03
2022-08-25T04:25:17.908Z,4.75
2022-08-25T04:27:45.851Z,4.97
2022-08-25T04:30:15.103Z,4.28
2022-08-25T04:32:43.031Z,4.65
2022-08-25T04:35:11.450Z,4.50
2022-08-25T04:37:39.389Z,4.65
2022-08-25T04:40:09.408Z,4.55
2022-08-25T04:42:39.288Z,4.80
2022-08-25T04:45:08.353Z,5.53
2022-08-25T04:47:39.217Z,5.13
2022-08-25T04:50:08.401Z,5.00
2022-08-25T04:52:36.428Z,5.22
2022-08-25T04:55:05.048Z,4.80
2022-08-25T04:57:32.957Z,5.38
2022-08-25T05:00:02.460Z,5.13
2022-08-25T05:02:31.258Z,5.03
2022-08-25T05:04:59.215Z,5.15
2022-08-25T05:07:27.506Z,5.10
2022-08-25T05:09:55.757Z,5.20
2022-08-25T05:12:23.711Z,5.43
2022-08-25T05:14:53.329Z,5.55
2022-08-25T05:17:22.669Z,5.72
2022-08-25T05:19:50.636Z,5.47
2022-08-25T05:22:18.644Z,5.32
2022-08-25T05:24:47.150Z,5.90
2022-08-25T05:27:15.164Z,6.32
2022-08-25T05:29:44.113Z,6.20
2022-08-25T05:32:12.269Z,6.47
2022-08-25T05:34:41.618Z,6.00
2022-08-25T05:37:12.165Z,6.32
2022-08-25T05:39:40.334Z,5.90
2022-08-25T05:42:08.856Z,6.03
2022-08-25T05:44:36.795Z,6.32
2022-08-25T05:47:05.392Z,6.50
2022-08-25T05:49:33.346Z,6.63
2022-08-25T05:52:02.899Z,7.07
2022-08-25T05:54:31.605Z,6.65
2022-08-25T05:57:00.114Z,6.72
2022-08-25T05:59:28.207Z,6.60
2022-08-25T06:02:13.808Z,6.82
2022-08-25T06:04:41.767Z,6.93
2022-08-25T06:07:12.758Z,7.28
2022-08-25T06:09:45.895Z,7.00
2022-08-25T06:12:14.209Z,7.60
2022-08-25T06:14:42.647Z,7.03
2022-08-25T06:17:10.836Z,7.30
2022-08-25T06:19:41.252Z,7.10
2022-08-25T06:22:10.867Z,7.13
2022-08-25T06:24:38.820Z,7.10
2022-08-25T06:27:06.940Z,7.45
2022-08-25T06:29:34.907Z,7.22
2022-08-25T06:32:03.056Z,7.22
2022-08-25T06:34:31.012Z,7.10
2022-08-25T06:36:59.046Z,7.50
2022-08-25T06:39:28.895Z,7.22
2022-08-25T06:41:58.042Z,7.30
2022-08-25T06:44:28.128Z,7.63
2022-08-25T06:46:56.316Z,7.30
2022-08-25T06:49:27.738Z,7.28
2022-08-25T06:51:55.890Z,7.88
2022-08-25T06:54:23.840Z,8.15
2022-08-25T06:56:53.149Z,7.72
2022-08-25T06:59:23.190Z,7.50
2022-08-25T07:01:51.219Z,7.35
2022-08-25T07:04:20.894Z,8.05
2022-08-25T07:06:48.997Z,7.18
2022-08-25T07:09:17.027Z,7.90
2022-08-25T07:11:46.346Z,7.38
2022-08-25T07:14:17.855Z,7.53
2022-08-25T07:16:49.674Z,7.22
2022-08-25T07:19:20.591Z,6.80
2022-08-25T07:21:51.528Z,6.90
2022-08-25T07:24:19.736Z,7.20
2022-08-25T07:26:47.770Z,7.40
2022-08-25T07:29:19.533Z,6.68
2022-08-25T07:31:48.185Z,5.93
2022-08-25T07:34:34.702Z,5.82
2022-08-25T07:37:05.252Z,6.97
2022-08-25T07:39:35.566Z,6.40
2022-08-25T07:42:04.847Z,6.28
2022-08-25T07:44:41.281Z,6.70
2022-08-25T07:47:11.503Z,6.78
2022-08-25T07:49:39.938Z,7.15
2022-08-25T07:52:09.048Z,7.00
2022-08-25T07:54:38.449Z,6.15
2022-08-25T07:57:08.707Z,6.20
2022-08-25T07:59:40.430Z,6.45
2022-08-25T08:02:18.000Z,5.93
2022-08-25T08:04:48.700Z,5.97
2022-08-25T08:07:18.601Z,6.53
2022-08-25T08:09:48.720Z,7.03
2022-08-25T08:12:21.239Z,6.43
2022-08-25T08:14:51.369Z,6.90
2022-08-25T08:17:21.471Z,6.43
2022-08-25T08:19:50.328Z,6.13
2022-08-25T08:22:18.616Z,6.43
2022-08-25T08:24:56.052Z,5.55
2022-08-25T08:27:25.420Z,6.22
2022-08-25T08:29:54.540Z,6.22
2022-08-25T08:32:32.397Z,5.40
2022-08-25T08:35:12.592Z,5.70
2022-08-25T08:37:42.440Z,6.05
2022-08-25T08:40:11.780Z,5.45
2022-08-25T08:42:55.044Z,6.35
2022-08-25T08:45:35.748Z,6.63
2022-08-25T08:48:27.219Z,5.97
2022-08-25T08:51:02.824Z,6.15
2022-08-25T08:53:43.267Z,5.80
2022-08-25T08:56:13.419Z,5.85
2022-08-25T08:58:44.733Z,5.13
2022-08-25T09:01:15.709Z,5.70
2022-08-25T09:03:48.171Z,5.40
2022-08-25T09:06:27.086Z,5.15
2022-08-25T09:08:56.747Z,5.20
2022-08-25T09:11:32.003Z,5.70
2022-08-25T09:14:10.376Z,5.72
2022-08-25T09:16:57.497Z,5.32
2022-08-25T09:19:33.779Z,5.18
2022-08-25T09:22:04.736Z,5.78
2022-08-25T09:24:58.141Z,6.05
2022-08-25T09:27:31.206Z,5.30
2022-08-25T09:30:01.741Z,5.22
2022-08-25T09:32:35.994Z,5.80
2022-08-25T09:35:08.079Z,5.43
2022-08-25T09:37:36.479Z,5.55
2022-08-25T09:40:05.347Z,5.22
2022-08-25T09:42:50.916Z,5.65
2022-08-25T09:45:34.579Z,5.53
2022-08-25T09:48:02.960Z,5.00
2022-08-25T09:50:35.026Z,5.05
2022-08-25T09:53:17.152Z,5.40
2022-08-25T09:55:48.605Z,5.97
2022-08-25T09:58:21.709Z,5.47
2022-08-25T10:01:03.031Z,5.22
2022-08-25T10:03:34.334Z,4.95
2022-08-25T10:06:12.951Z,5.05
2022-08-25T10:08:53.304Z,5.53
2022-08-25T10:11:33.204Z,5.38
2022-08-25T10:14:03.468Z,4.88
2022-08-25T10:16:36.458Z,5.40
2022-08-25T10:19:08.817Z,5.32
2022-08-25T10:21:39.701Z,5.50
2022-08-25T10:24:08.659Z,5.25
2022-08-25T10:26:48.925Z,5.63
2022-08-25T10:29:22.633Z,5.85
2022-08-25T10:31:57.921Z,5.20
2022-08-25T10:34:39.072Z,5.47
2022-08-25T10:37:24.368Z,5.43
2022-08-25T10:40:01.344Z,6.18
2022-08-25T10:42:37.083Z,6.22
2022-08-25T10:45:38.304Z,5.47
2022-08-25T10:48:44.789Z,5.28
2022-08-25T10:51:32.485Z,4.88
2022-08-25T10:54:13.658Z,5.82
2022-08-25T10:56:44.741Z,5.55
2022-08-25T10:59:43.824Z,5.60
2022-08-25T11:02:34.775Z,5.30
2022-08-25T11:05:08.517Z,5.72
2022-08-25T11:07:41.186Z,5.25
2022-08-25T11:10:14.412Z,4.82
2022-08-25T11:12:45.277Z,5.47
2022-08-25T11:15:20.665Z,4.97
2022-08-25T11:17:54.447Z,4.82
2022-08-25T11:20:28.310Z,5.15
2022-08-25T11:23:07.926Z,5.13
2022-08-25T11:25:41.691Z,5.20
2022-08-25T11:28:14.641Z,5.05
2022-08-25T11:30:43.024Z,4.78
2022-08-25T11:33:14.655Z,4.90
2022-08-25T11:35:48.997Z,4.68
2022-08-25T11:38:33.132Z,4.43
2022-08-25T11:41:12.435Z,4.30
2022-08-25T11:43:54.018Z,4.88
2022-08-25T11:46:36.301Z,4.78
2022-08-25T11:49:31.656Z,4.63
2022-08-25T11:52:03.043Z,4.53
2022-08-25T11:54:38.726Z,4.40
2022-08-25T11:57:22.281Z,4.63
2022-08-25T12:00:14.081Z,4.43
2022-08-25T12:02:44.643Z,4.47
2022-08-25T12:05:55.070Z,4.65
2022-08-25T12:08:57.567Z,4.90
2022-08-25T12:11:47.637Z,4.60
2022-08-25T12:14:37.455Z,4.72
2022-08-25T12:17:20.574Z,4.30
2022-08-25T12:19:52.687Z,4.35
2022-08-25T12:22:51.312Z,4.32
2022-08-25T12:25:44.313Z,4.70
2022-08-25T12:28:30.524Z,4.68
2022-08-25T12:31:16.983Z,4.45
2022-08-25T12:34:16.786Z,5.22
2022-08-25T12:36:58.977Z,4.70
2022-08-25T12:39:32.318Z,4.53
2022-08-25T12:42:04.845Z,4.45
2022-08-25T12:44:43.111Z,5.15
2022-08-25T12:47:31.894Z,5.03
2022-08-25T12:50:28.225Z,4.43
2022-08-25T12:53:04.903Z,4.35
2022-08-25T12:55:35.050Z,4.38
2022-08-25T12:58:05.771Z,4.00
2022-08-25T13:00:46.658Z,3.88
2022-08-25T13:06:40.756Z,3.70
2022-08-25T13:09:46.798Z,4.00
2022-08-25T13:12:18.894Z,4.20
2022-08-25T13:14:54.894Z,4.18
2022-08-25T13:17:27.886Z,4.90
2022-08-25T13:20:17.184Z,4.10
2022-08-25T13:22:47.751Z,4.70
2022-08-25T13:25:23.144Z,4.05
2022-08-25T13:27:58.116Z,3.80
2022-08-25T13:30:29.771Z,3.75
2022-08-25T13:32:58.321Z,3.70
2022-08-25T13:35:35.167Z,3.67
2022-08-25T13:38:17.343Z,4.00
2022-08-25T13:40:45.814Z,4.00
2022-08-25T13:43:16.343Z,3.85
2022-08-25T13:45:47.440Z,4.18
2022-08-25T13:48:32.004Z,4.32
2022-08-25T13:51:08.901Z,3.97
2022-08-25T13:53:39.542Z,4.00
2022-08-25T13:56:07.769Z,3.88
2022-08-25T13:58:45.705Z,3.92
2022-08-25T14:01:23.695Z,3.88
2022-08-25T14:04:29.474Z,4.30
2022-08-25T14:07:34.434Z,3.63
2022-08-25T14:10:05.912Z,3.90
2022-08-25T14:12:40.534Z,4.07
2022-08-25T14:15:13.646Z,4.40
2022-08-25T14:17:48.413Z,4.00
2022-08-25T14:20:21.782Z,3.80
2022-08-25T14:22:54.907Z,4.22
2022-08-25T14:25:22.964Z,4.05
2022-08-25T14:28:13.848Z,3.95
2022-08-25T14:30:46.199Z,4.82
2022-08-25T14:33:16.429Z,4.15
2022-08-25T14:35:48.037Z,4.03
2022-08-25T14:38:18.489Z,3.90
2022-08-25T14:40:46.967Z,4.22
2022-08-25T14:43:18.344Z,4.07
2022-08-25T14:45:52.406Z,4.30
2022-08-25T14:48:26.817Z,3.67
2022-08-25T14:50:56.325Z,3.97
2022-08-25T14:53:27.313Z,3.83
2022-08-25T14:55:59.210Z,4.15
2022-08-25T14:58:27.926Z,4.20
2022-08-25T15:01:03.386Z,3.72
2022-08-25T15:03:35.992Z,3.97
2022-08-25T15:06:05.996Z,4.15
2022-08-25T15:08:52.889Z,3.70
2022-08-25T15:11:20.956Z,3.92
2022-08-25T15:13:50.025Z,4.07
2022-08-25T15:16:25.312Z,4.05
2022-08-25T15:19:06.678Z,4.07
2022-08-25T15:21:35.747Z,3.70
2022-08-25T15:24:05.956Z,3.83
2022-08-25T15:26:39.944Z,4.20
2022-08-25T15:29:08.016Z,4.60
2022-08-25T15:31:38.713Z,3.92
2022-08-25T15:34:07.386Z,4.25
2022-08-25T15:36:40.786Z,4.05
2022-08-25T15:39:11.532Z,3.78
2022-08-25T15:41:39.671Z,3.78
2022-08-25T15:44:11.365Z,3.88
2022-08-25T15:46:42.203Z,4.15
2022-08-25T15:49:20.278Z,4.05
2022-08-25T15:51:48.817Z,3.63
2022-08-25T15:54:18.128Z,4.00
2022-08-25T15:56:46.162Z,3.58
2022-08-25T15:59:14.473Z,3.75
2022-08-25T16:01:43.680Z,3.92
2022-08-25T16:04:12.647Z,4.10
2022-08-25T16:06:40.623Z,4.03
2022-08-25T16:09:08.971Z,3.92
2022-08-25T16:11:38.934Z,3.63
2022-08-25T16:14:07.269Z,3.50
2022-08-25T16:16:35.437Z,4.15
2022-08-25T16:19:04.841Z,3.45
2022-08-25T16:21:36.988Z,3.38
2022-08-25T16:24:10.627Z,3.53
2022-08-25T16:26:48.253Z,3.22
2022-08-25T16:29:17.476Z,3.15
2022-08-25T16:31:45.641Z,3.08
2022-08-25T16:34:22.133Z,3.20
2022-08-25T16:36:52.803Z,3.42
2022-08-25T16:39:21.040Z,3.05
2022-08-25T16:41:51.385Z,3.25
2022-08-25T16:44:22.486Z,3.10
2022-08-25T16:46:54.334Z,3.17
2022-08-25T16:49:24.203Z,3.13
2022-08-25T16:51:57.048Z,2.95
2022-08-25T16:54:43.883Z,2.75
2022-08-25T16:57:13.503Z,3.28
2022-08-25T16:59:42.468Z,3.70
2022-08-25T17:02:12.134Z,3.50
2022-08-25T17:04:41.930Z,2.80
2022-08-25T17:07:10.455Z,3.53
2022-08-25T17:09:38.395Z,3.10
2022-08-25T17:12:06.894Z,2.97
2022-08-25T17:14:36.700Z,3.30
2022-08-25T17:17:07.011Z,3.58
2022-08-25T17:19:35.254Z,3.40
2022-08-25T17:22:03.359Z,3.78
2022-08-25T17:24:33.750Z,3.35
2022-08-25T17:27:02.656Z,3.17
2022-08-25T17:29:30.678Z,3.15
2022-08-25T17:32:00.135Z,3.05
2022-08-25T17:34:29.092Z,3.30
2022-08-25T17:36:58.071Z,3.33
2022-08-25T17:39:26.499Z,3.33
2022-08-25T17:41:54.687Z,3.47
2022-08-25T17:44:22.748Z,3.40
2022-08-25T17:46:50.853Z,3.60
2022-08-25T17:49:21.346Z,3.05
2022-08-25T17:51:51.080Z,3.47
2022-08-25T17:54:19.898Z,3.22
2022-08-25T17:56:48.825Z,3.33
2022-08-25T17:59:18.774Z,3.78
2022-08-25T18:01:47.997Z,3.70
2022-08-25T18:04:17.303Z,3.70
2022-08-25T18:06:48.238Z,3.63
2022-08-25T18:09:16.450Z,3.65
2022-08-25T18:11:45.615Z,3.58
2022-08-25T18:14:16.462Z,3.60
2022-08-25T18:16:44.545Z,3.50
2022-08-25T18:19:14.292Z,3.63
2022-08-25T18:21:43.627Z,3.75
2022-08-25T18:24:13.566Z,3.70
2022-08-25T18:26:42.072Z,4.00
2022-08-25T18:29:12.835Z,3.72
2022-08-25T18:31:42.221Z,3.72
2022-08-25T18:34:11.414Z,3.97
2022-08-25T18:36:39.828Z,3.97
2022-08-25T18:39:28.751Z,4.07
2022-08-25T18:42:02.775Z,3.78
2022-08-25T18:44:32.105Z,4.50
2022-08-25T18:47:00.314Z,4.65
2022-08-25T18:49:37.012Z,4.95
2022-08-25T18:52:06.658Z,4.95
2022-08-25T18:54:36.142Z,5.00
2022-08-25T18:57:08.199Z,4.28
2022-08-25T18:59:37.876Z,5.10
2022-08-25T19:02:06.969Z,4.85
2022-08-25T19:04:35.067Z,4.95
2022-08-25T19:07:03.246Z,4.75
2022-08-25T19:09:31.875Z,4.35
2022-08-25T19:12:00.161Z,4.00
2022-08-25T19:14:29.816Z,4.60
2022-08-25T19:16:59.092Z,4.22
2022-08-25T19:19:27.905Z,3.97
2022-08-25T19:21:55.945Z,4.53
2022-08-25T19:24:23.907Z,4.07
2022-08-25T19:26:54.694Z,3.78
2022-08-25T19:29:24.081Z,3.92
2022-08-25T19:31:53.683Z,4.30
2022-08-25T19:34:28.153Z,3.70
2022-08-25T19:37:00.063Z,4.25
2022-08-25T19:39:28.497Z,4.38
2022-08-25T19:41:59.037Z,4.40
2022-08-25T19:44:28.023Z,4.35
2022-08-25T19:46:57.729Z,4.68
2022-08-25T19:49:33.340Z,4.53
2022-08-25T19:52:03.357Z,4.95
2022-08-25T19:54:34.697Z,6.18
2022-08-25T19:57:05.095Z,6.00
2022-08-25T19:59:43.091Z,7.25
2022-08-25T20:02:15.956Z,6.30
2022-08-25T20:04:49.161Z,5.55
2022-08-25T20:07:19.618Z,5.70
2022-08-25T20:09:48.513Z,5.15
2022-08-25T20:12:17.500Z,5.20
2022-08-25T20:14:47.007Z,4.72
2022-08-25T20:17:24.551Z,4.60
2022-08-25T20:19:55.500Z,4.35
2022-08-25T20:22:26.229Z,5.03
2022-08-25T20:24:58.723Z,4.60
2022-08-25T20:27:34.940Z,4.60
2022-08-25T20:30:04.540Z,4.30
2022-08-25T20:32:35.621Z,4.65
2022-08-25T20:35:06.219Z,4.20
2022-08-25T20:37:37.270Z,4.25
2022-08-25T20:40:06.615Z,4.47
2022-08-25T20:42:35.733Z,4.82
2022-08-25T20:45:06.712Z,5.25
2022-08-25T20:47:36.159Z,4.93
2022-08-25T20:50:06.949Z,5.60
2022-08-25T20:52:36.297Z,4.53
2022-08-25T20:55:08.741Z,5.13
2022-08-25T20:57:36.906Z,5.00
2022-08-25T21:00:07.348Z,5.15
2022-08-25T21:02:36.800Z,5.10
2022-08-25T21:05:05.621Z,5.00
2022-08-25T21:07:35.860Z,5.35
2022-08-25T21:10:10.561Z,5.00
2022-08-25T21:12:42.367Z,5.50
2022-08-25T21:15:12.031Z,5.78
2022-08-25T21:17:41.537Z,5.18
2022-08-25T21:20:11.822Z,5.18
2022-08-25T21:22:39.889Z,5.30
2022-08-25T21:25:09.395Z,5.47
2022-08-25T21:27:37.706Z,5.50
2022-08-25T21:30:07.801Z,5.32
2022-08-25T21:32:36.397Z,5.53
2022-08-25T21:35:08.074Z,5.63
2022-08-25T21:37:36.156Z,5.82
2022-08-25T21:40:06.954Z,5.20
2022-08-25T21:42:36.655Z,5.47
2022-08-25T21:45:05.162Z,5.72
2022-08-25T21:47:42.253Z,5.63
2022-08-25T21:50:13.807Z,4.82
2022-08-25T21:52:43.167Z,4.90
2022-08-25T21:55:16.246Z,5.22
2022-08-25T21:57:44.504Z,5.40
2022-08-25T22:00:15.025Z,5.15
2022-08-25T22:02:45.844Z,5.43
2022-08-25T22:05:15.514Z,5.07
2022-08-25T22:07:48.663Z,5.82
2022-08-25T22:10:23.745Z,5.30
2022-08-25T22:12:52.820Z,5.38
2022-08-25T22:15:20.867Z,5.70
2022-08-25T22:17:49.219Z,5.30
2022-08-25T22:20:20.006Z,5.57
2022-08-25T22:22:48.175Z,5.22
2022-08-25T22:25:17.441Z,5.78
2022-08-25T22:27:45.464Z,5.00
2022-08-25T22:30:15.587Z,5.70
2022-08-25T22:32:45.594Z,5.45
2022-08-25T22:35:13.789Z,4.95
2022-08-25T22:37:46.933Z,4.97
2022-08-25T22:40:15.398Z,6.03
2022-08-25T22:42:48.079Z,5.20
2022-08-25T22:45:17.460Z,5.28
2022-08-25T22:47:45.740Z,4.75
2022-08-25T22:50:14.150Z,5.13
2022-08-25T22:52:46.903Z,5.10
2022-08-25T22:55:18.072Z,5.00
2022-08-25T22:57:50.236Z,5.68
2022-08-25T23:00:23.492Z,5.25
2022-08-25T23:02:53.297Z,4.75
2022-08-25T23:05:21.570Z,5.22
2022-08-25T23:07:52.228Z,4.63
2022-08-25T23:10:22.684Z,4.95
2022-08-25T23:12:51.541Z,5.47
2022-08-25T23:15:27.289Z,4.80
2022-08-25T23:17:55.271Z,5.22
2022-08-25T23:20:44.798Z,4.80
2022-08-25T23:23:14.828Z,4.80
2022-08-25T23:25:43.790Z,5.32
2022-08-25T23:28:11.780Z,5.15
2022-08-25T23:30:39.914Z,5.00
2022-08-25T23:33:11.950Z,5.00
2022-08-25T23:35:39.904Z,4.53
2022-08-25T23:38:07.900Z,4.95
2022-08-25T23:40:41.924Z,4.75
2022-08-25T23:43:10.416Z,4.97
2022-08-25T23:45:38.672Z,4.80
2022-08-25T23:48:08.939Z,4.78
2022-08-25T23:50:40.885Z,4.80
2022-08-25T23:53:09.871Z,4.80
2022-08-25T23:55:39.270Z,4.88
2022-08-25T23:58:21.753Z,4.80
